Terminal Aerodrome Forecast
Issued by NWS

Home | Current Version | Previous Version | Text Only | Print | Product List | Glossary On
Versions: 1 2 3 4 5 6 7 8 9 10 11 12 13 14 15
000
FTUS44 KCRP 210523
TAFLRD
TAF
KLRD 210523Z 2106/2206 VRB06KT P6SM VCSH SCT110 OVC180
     FM211000 12006KT P6SM VCSH SCT020 OVC070
      TEMPO 2110/2114 -RA BKN020 OVC070
     FM212000 14013KT P6SM VCSH SCT020 OVC035
     FM220500 13008KT P6SM BKN015=

USA.gov is the U.S. government's official web portal to all federal, state and local government web resources and services.